Terminal Aerodrome Forecast
Issued by NWS

Home | Current Version | Previous Version | Text Only | Print | Product List | Glossary On
Versions: 1 2 3 4 5 6 7 8 9 10 11 12 13 14 15 16 17
222
FTUS42 KMLB 271125
TAFISM
TAF
KISM 271125Z 2712/2812 07004KT P6SM SKC
     FM271500 12012KT P6SM SCT040
      TEMPO 2716/2720 BKN040
     FM280000 11006KT P6SM SCT040
     FM280800 13003KT P6SM SCT008
      TEMPO 2809/2812 2SM BR BKN008=

USA.gov is the U.S. government's official web portal to all federal, state and local government web resources and services.